Newman Grove, Nebraska
Current Conditions -  °F | °C
As of 7:15 AM on Saturday 25 Oct 2014 (Local Time) from KBVN Reporting Station
Clear Clear  
Wind Chill: 37°   Ceiling: Unl
Heat Index: 40°   Visibility: 10mi
Dew Point: 37°   Wind: 5mph
Humidity: 87%   Direction: 320°NW
Pressure: 30.11"   Gusts: NA
Location:  41.75°N, 97.78°W
Report Text: KBVN 251215Z AUTO 32004KT 10SM CLR 05/03 A3011 RMK AO2 T00460026
Loading
Personal Weather Stations






























Interactive Weather Map New forecast layout! Learn more

10-Day Weather Forecast

Advertisements
Track Severe Weather on mobile